Time,TemperatureF,DewpointF,PressureIn,WindDirection,WindDirectionDegrees,WindSpeedMPH,WindSpeedGustMPH,Humidity,HourlyPrecipIn,Conditions,Clouds,dailyrainin,SoftwareType,DateUTC
2013-03-29 00:07:00,64.0,55.0,29.01,SSW,205,0.0,11.0,73,0.00,,,0.00,weatherlink.com 1.10,2013-03-29 05:07:00,
2013-03-29 00:23:00,63.5,55.0,29.01,South,187,4.0,8.0,74,0.00,,,0.00,weatherlink.com 1.10,2013-03-29 05:23:00,
2013-03-29 00:38:00,63.2,55.0,29.01,South,181,1.0,10.0,75,0.00,,,0.00,weatherlink.com 1.10,2013-03-29 05:38:00,
2013-03-29 00:53:00,62.9,55.0,29.01,South,169,4.0,9.0,76,0.00,,,0.00,weatherlink.com 1.10,2013-03-29 05:53:00,
2013-03-29 01:08:00,62.6,55.0,29.01,SSW,201,7.0,12.0,77,0.00,,,0.00,weatherlink.com 1.10,2013-03-29 06:08:00,
2013-03-29 01:23:00,62.4,55.0,29.01,SW,222,3.0,12.0,78,0.00,,,0.00,weatherlink.com 1.10,2013-03-29 06:23:00,
2013-03-29 01:38:00,62.0,55.0,29.01,SSW,194,3.0,8.0,79,0.00,,,0.00,weatherlink.com 1.10,2013-03-29 06:38:00,
2013-03-29 01:53:00,61.6,55.0,29.02,SSE,167,1.0,8.0,79,0.00,,,0.00,weatherlink.com 1.10,2013-03-29 06:53:00,
2013-03-29 02:08:00,61.2,55.0,29.02,South,171,0.0,7.0,80,0.00,,,0.00,weatherlink.com 1.10,2013-03-29 07:08:00,
2013-03-29 02:23:00,60.9,55.0,29.02,South,177,2.0,7.0,81,0.00,,,0.00,weatherlink.com 1.10,2013-03-29 07:23:00,
2013-03-29 02:38:00,60.5,55.0,29.02,SSE,165,0.0,5.0,82,0.00,,,0.00,weatherlink.com 1.10,2013-03-29 07:38:00,
2013-03-29 02:53:00,60.2,55.0,29.02,SE,139,0.0,6.0,82,0.00,,,0.00,weatherlink.com 1.10,2013-03-29 07:53:00,
2013-03-29 03:08:00,59.8,55.0,29.01,SE,140,0.0,4.0,83,0.00,,,0.00,weatherlink.com 1.10,2013-03-29 08:08:00,
2013-03-29 03:23:00,59.6,55.0,29.02,SE,140,0.0,5.0,84,0.00,,,0.00,weatherlink.com 1.10,2013-03-29 08:23:00,
2013-03-29 03:38:00,59.2,54.0,29.02,SE,140,0.0,4.0,84,0.00,,,0.00,weatherlink.com 1.10,2013-03-29 08:38:00,
2013-03-29 03:53:00,59.0,55.0,29.01,SE,140,0.0,4.0,85,0.00,,,0.00,weatherlink.com 1.10,2013-03-29 08:53:00,
2013-03-29 04:08:00,58.7,54.0,29.00,SE,136,0.0,5.0,85,0.00,,,0.00,weatherlink.com 1.10,2013-03-29 09:08:00,
2013-03-29 04:23:00,58.3,54.0,29.00,SE,136,0.0,3.0,86,0.00,,,0.00,weatherlink.com 1.10,2013-03-29 09:23:00,
2013-03-29 04:38:00,58.0,54.0,28.99,SE,136,0.0,2.0,86,0.00,,,0.00,weatherlink.com 1.10,2013-03-29 09:38:00,
2013-03-29 04:53:00,57.8,54.0,28.99,SE,136,0.0,0.0,87,0.00,,,0.00,weatherlink.com 1.10,2013-03-29 09:53:00,
2013-03-29 05:08:00,57.6,54.0,28.99,SE,134,0.0,3.0,87,0.00,,,0.00,weatherlink.com 1.10,2013-03-29 10:08:00,
2013-03-29 05:23:00,57.6,54.0,28.99,SE,132,0.0,6.0,88,0.00,,,0.00,weatherlink.com 1.10,2013-03-29 10:23:00,
2013-03-29 05:38:00,57.8,54.0,28.99,SE,132,0.0,4.0,88,0.00,,,0.00,weatherlink.com 1.10,2013-03-29 10:38:00,
2013-03-29 05:53:00,57.5,54.0,28.99,SE,132,0.0,2.0,88,0.00,,,0.00,weatherlink.com 1.10,2013-03-29 10:53:00,
2013-03-29 06:08:00,57.2,54.0,28.99,SE,132,0.0,1.0,88,0.00,,,0.00,weatherlink.com 1.10,2013-03-29 11:08:00,
2013-03-29 06:23:00,57.3,54.0,28.99,SE,132,0.0,3.0,89,0.00,,,0.00,weatherlink.com 1.10,2013-03-29 11:23:00,
2013-03-29 06:38:00,57.5,54.0,29.00,SE,132,0.0,3.0,89,0.00,,,0.00,weatherlink.com 1.10,2013-03-29 11:38:00,
2013-03-29 06:53:00,57.6,54.0,29.00,SE,132,0.0,4.0,89,0.00,,,0.00,weatherlink.com 1.10,2013-03-29 11:53:00,
2013-03-29 07:08:00,57.6,54.0,29.00,SE,132,0.0,4.0,89,0.00,,,0.00,weatherlink.com 1.10,2013-03-29 12:08:00,
2013-03-29 07:23:00,57.5,54.0,29.01,SE,132,0.0,3.0,89,0.00,,,0.00,weatherlink.com 1.10,2013-03-29 12:23:00,
2013-03-29 07:38:00,57.3,54.0,29.01,SE,132,0.0,0.0,89,0.00,,,0.00,weatherlink.com 1.10,2013-03-29 12:38:00,
2013-03-29 07:53:00,57.2,54.0,29.02,SE,133,0.0,0.0,89,0.00,,,0.00,weatherlink.com 1.10,2013-03-29 12:53:00,
2013-03-29 08:08:00,57.8,55.0,29.02,SE,133,0.0,0.0,89,0.00,,,0.00,weatherlink.com 1.10,2013-03-29 13:08:00,
2013-03-29 08:23:00,58.3,55.0,29.02,SE,133,1.0,3.0,89,0.00,,,0.00,weatherlink.com 1.10,2013-03-29 13:23:00,
2013-03-29 08:38:00,59.0,56.0,29.02,SE,133,2.0,3.0,88,0.00,,,0.00,weatherlink.com 1.10,2013-03-29 13:38:00,
2013-03-29 08:53:00,60.7,56.0,29.02,SE,140,0.0,7.0,85,0.00,,,0.00,weatherlink.com 1.10,2013-03-29 13:53:00,
2013-03-29 09:08:00,62.1,56.0,29.01,SSE,168,8.0,11.0,81,0.00,,,0.00,weatherlink.com 1.10,2013-03-29 14:08:00,
2013-03-29 09:23:00,62.9,56.0,29.02,SSE,166,6.0,14.0,78,0.00,,,0.00,weatherlink.com 1.10,2013-03-29 14:23:00,
2013-03-29 09:38:00,63.5,56.0,29.02,SE,138,5.0,14.0,76,0.00,,,0.00,weatherlink.com 1.10,2013-03-29 14:38:00,
2013-03-29 09:53:00,64.0,56.0,29.02,SSW,202,7.0,13.0,75,0.00,,,0.00,weatherlink.com 1.10,2013-03-29 14:53:00,
2013-03-29 10:08:00,64.7,55.0,29.03,SSE,163,6.0,13.0,72,0.00,,,0.00,weatherlink.com 1.10,2013-03-29 15:08:00,
2013-03-29 10:23:00,65.6,55.0,29.02,South,179,6.0,14.0,69,0.00,,,0.00,weatherlink.com 1.10,2013-03-29 15:23:00,
2013-03-29 10:38:00,67.9,55.0,29.03,South,190,6.0,12.0,63,0.00,,,0.00,weatherlink.com 1.10,2013-03-29 15:38:00,
2013-03-29 10:53:00,68.6,54.0,29.03,SSW,204,8.0,15.0,60,0.00,,,0.00,weatherlink.com 1.10,2013-03-29 15:53:00,
2013-03-29 11:08:00,69.1,54.0,29.03,South,188,8.0,16.0,60,0.00,,,0.00,weatherlink.com 1.10,2013-03-29 16:08:00,
2013-03-29 11:23:00,70.4,55.0,29.03,SSE,147,5.0,14.0,58,0.00,,,0.00,weatherlink.com 1.10,2013-03-29 16:23:00,
2013-03-29 11:38:00,69.6,54.0,29.03,South,170,9.0,12.0,59,0.00,,,0.00,weatherlink.com 1.10,2013-03-29 16:38:00,
2013-03-29 11:53:00,71.3,55.0,29.02,SSE,165,4.0,15.0,56,0.00,,,0.00,weatherlink.com 1.10,2013-03-29 16:53:00,
2013-03-29 12:08:00,70.8,55.0,29.02,SW,214,4.0,16.0,57,0.00,,,0.00,weatherlink.com 1.10,2013-03-29 17:08:00,
2013-03-29 12:23:00,72.7,55.0,29.01,South,190,6.0,16.0,54,0.00,,,0.00,weatherlink.com 1.10,2013-03-29 17:23:00,
2013-03-29 12:38:00,72.1,54.0,29.00,SSW,196,7.0,16.0,53,0.00,,,0.00,weatherlink.com 1.10,2013-03-29 17:38:00,
2013-03-29 12:53:00,74.6,54.0,29.00,SW,227,12.0,16.0,48,0.00,,,0.00,weatherlink.com 1.10,2013-03-29 17:53:00,
2013-03-29 13:08:00,74.7,54.0,28.99,South,177,9.0,18.0,48,0.00,,,0.00,weatherlink.com 1.10,2013-03-29 18:08:00,
2013-03-29 13:23:00,75.8,53.0,28.99,SSW,192,5.0,19.0,46,0.00,,,0.00,weatherlink.com 1.10,2013-03-29 18:23:00,
2013-03-29 13:39:00,75.4,54.0,28.98,SSW,203,12.0,18.0,47,0.00,,,0.00,weatherlink.com 1.10,2013-03-29 18:39:00,
2013-03-29 13:54:00,76.1,54.0,28.98,SW,217,5.0,17.0,46,0.00,,,0.00,weatherlink.com 1.10,2013-03-29 18:54:00,
2013-03-29 14:09:00,76.1,54.0,28.97,SSE,155,3.0,16.0,46,0.00,,,0.00,weatherlink.com 1.10,2013-03-29 19:09:00,
2013-03-29 14:24:00,76.5,54.0,28.97,South,171,8.0,16.0,46,0.00,,,0.00,weatherlink.com 1.10,2013-03-29 19:24:00,
2013-03-29 14:39:00,76.7,54.0,28.96,South,180,7.0,17.0,45,0.00,,,0.00,weatherlink.com 1.10,2013-03-29 19:39:00,
2013-03-29 14:54:00,76.3,53.0,28.96,SSE,157,6.0,16.0,45,0.00,,,0.00,weatherlink.com 1.10,2013-03-29 19:54:00,
2013-03-29 15:09:00,75.8,53.0,28.96,SSE,162,12.0,12.0,46,0.00,,,0.00,weatherlink.com 1.10,2013-03-29 20:09:00,
2013-03-29 15:24:00,76.3,53.0,28.95,SE,138,4.0,14.0,45,0.00,,,0.00,weatherlink.com 1.10,2013-03-29 20:24:00,
2013-03-29 15:39:00,76.1,54.0,28.94,SE,140,3.0,14.0,46,0.00,,,0.00,weatherlink.com 1.10,2013-03-29 20:39:00,
2013-03-29 15:55:00,75.8,53.0,28.93,SSE,151,7.0,17.0,45,0.00,,,0.00,weatherlink.com 1.10,2013-03-29 20:55:00,
2013-03-29 16:09:00,75.8,53.0,28.93,SSE,163,3.0,16.0,46,0.00,,,0.00,weatherlink.com 1.10,2013-03-29 21:09:00,
2013-03-29 16:24:00,75.8,53.0,28.93,South,179,4.0,17.0,45,0.00,,,0.00,weatherlink.com 1.10,2013-03-29 21:24:00,
2013-03-29 16:39:00,75.4,53.0,28.93,SSE,163,2.0,13.0,46,0.00,,,0.00,weatherlink.com 1.10,2013-03-29 21:39:00,
2013-03-29 16:54:00,75.6,53.0,28.92,SE,131,3.0,14.0,46,0.00,,,0.00,weatherlink.com 1.10,2013-03-29 21:54:00,
2013-03-29 17:09:00,75.3,54.0,28.92,South,178,6.0,16.0,47,0.00,,,0.00,weatherlink.com 1.10,2013-03-29 22:09:00,
2013-03-29 17:24:00,75.4,53.0,28.92,South,172,7.0,14.0,46,0.00,,,0.00,weatherlink.com 1.10,2013-03-29 22:24:00,
2013-03-29 17:39:00,75.4,53.0,28.92,SSW,202,10.0,13.0,46,0.00,,,0.00,weatherlink.com 1.10,2013-03-29 22:39:00,
2013-03-29 18:09:00,75.4,53.0,28.92,SSW,203,8.0,14.0,46,0.00,,,0.00,weatherlink.com 1.10,2013-03-29 23:09:00,
2013-03-29 18:24:00,75.3,53.0,28.92,SSW,204,7.0,11.0,46,0.00,,,0.00,weatherlink.com 1.10,2013-03-29 23:24:00,
2013-03-29 18:39:00,75.4,53.0,28.92,SSE,161,9.0,11.0,46,0.00,,,0.00,weatherlink.com 1.10,2013-03-29 23:39:00,
2013-03-29 18:54:00,75.3,53.0,28.92,SSE,155,8.0,11.0,46,0.00,,,0.00,weatherlink.com 1.10,2013-03-29 23:54:00,
2013-03-29 19:09:00,75.3,54.0,28.91,SSE,154,3.0,11.0,47,0.00,,,0.00,weatherlink.com 1.10,2013-03-30 00:09:00,
2013-03-29 19:24:00,74.2,54.0,28.92,SSE,168,4.0,11.0,49,0.00,,,0.00,weatherlink.com 1.10,2013-03-30 00:24:00,
2013-03-29 19:40:00,73.3,54.0,28.92,SE,134,3.0,7.0,51,0.00,,,0.00,weatherlink.com 1.10,2013-03-30 00:40:00,
2013-03-29 19:54:00,72.5,54.0,28.92,ESE,115,0.0,8.0,52,0.00,,,0.00,weatherlink.com 1.10,2013-03-30 00:54:00,
2013-03-29 20:09:00,71.8,54.0,28.93,SE,128,0.0,4.0,54,0.00,,,0.00,weatherlink.com 1.10,2013-03-30 01:09:00,
2013-03-29 20:24:00,70.9,54.0,28.93,ESE,118,0.0,2.0,55,0.00,,,0.00,weatherlink.com 1.10,2013-03-30 01:24:00,
2013-03-29 20:39:00,70.3,54.0,28.94,ESE,118,0.0,1.0,57,0.00,,,0.00,weatherlink.com 1.10,2013-03-30 01:39:00,
2013-03-29 20:54:00,69.9,54.0,28.94,ESE,118,1.0,1.0,58,0.00,,,0.00,weatherlink.com 1.10,2013-03-30 01:54:00,
2013-03-29 21:09:00,69.9,54.0,28.95,ESE,118,0.0,1.0,58,0.00,,,0.00,weatherlink.com 1.10,2013-03-30 02:09:00,
2013-03-29 21:24:00,69.9,54.0,28.95,ESE,118,0.0,3.0,58,0.00,,,0.00,weatherlink.com 1.10,2013-03-30 02:24:00,
2013-03-29 21:39:00,69.8,55.0,28.95,ESE,118,0.0,2.0,59,0.00,,,0.00,weatherlink.com 1.10,2013-03-30 02:39:00,
2013-03-29 21:54:00,69.8,55.0,28.94,ESE,118,0.0,3.0,59,0.00,,,0.00,weatherlink.com 1.10,2013-03-30 02:54:00,
2013-03-29 22:09:00,69.8,55.0,28.94,ESE,119,5.0,7.0,59,0.00,,,0.00,weatherlink.com 1.10,2013-03-30 03:09:00,
2013-03-29 22:24:00,69.6,54.0,28.94,ESE,110,4.0,10.0,59,0.00,,,0.00,weatherlink.com 1.10,2013-03-30 03:24:00,
2013-03-29 22:39:00,69.1,55.0,28.95,ESE,108,3.0,6.0,61,0.00,,,0.00,weatherlink.com 1.10,2013-03-30 03:39:00,
2013-03-29 22:54:00,68.9,55.0,28.96,SE,126,0.0,8.0,62,0.00,,,0.00,weatherlink.com 1.10,2013-03-30 03:54:00,
2013-03-29 23:10:00,68.8,55.0,28.96,SE,138,6.0,9.0,62,0.00,,,0.00,weatherlink.com 1.10,2013-03-30 04:10:00,
2013-03-29 23:24:00,68.6,55.0,28.97,SE,144,5.0,10.0,63,0.00,,,0.00,weatherlink.com 1.10,2013-03-30 04:24:00,
2013-03-29 23:39:00,68.3,56.0,28.96,ESE,118,7.0,12.0,64,0.00,,,0.00,weatherlink.com 1.10,2013-03-30 04:39:00,
2013-03-29 23:54:00,67.9,55.0,28.94,SSE,163,7.0,12.0,64,0.00,,,0.00,weatherlink.com 1.10,2013-03-30 04:54:00,